Time;durP1;ratioP1;P1;durP2;ratioP2;P2;SDS_P1;SDS_P2;PMS_P1;PMS_P2;Temp;Humidity;BMP_temperature;BMP_pressure;BME280_temperature;BME280_humidity;BME280_pressure;Samples;Min_cycle;Max_cycle;Signal;HPM_P1;HPM_P2
2024/03/31 00:00:19;;;;;;;50.80;23.93;;;10.10;1.00;;;;;;5058179;28;20632;-83
2024/03/31 00:02:46;;;;;;;43.87;24.37;;;10.10;1.00;;;;;;5058154;28;20203;-82
2024/03/31 00:05:13;;;;;;;54.27;24.07;;;10.20;1.00;;;;;;5058668;28;20302;-83
2024/03/31 00:07:39;;;;;;;43.20;20.27;;;10.10;1.00;;;;;;5058054;28;20284;-83
2024/03/31 00:10:06;;;;;;;50.17;22.37;;;9.90;1.00;;;;;;5058629;28;20645;-84
2024/03/31 00:12:32;;;;;;;45.73;23.20;;;10.00;1.00;;;;;;5059462;28;20225;-84
2024/03/31 00:15:00;;;;;;;46.50;22.73;;;10.10;1.00;;;;;;5059247;28;20215;-84
2024/03/31 00:17:26;;;;;;;54.40;24.50;;;10.10;1.00;;;;;;5058856;28;20229;-84
2024/03/31 00:19:53;;;;;;;50.33;25.13;;;10.20;1.00;;;;;;5059715;28;20653;-84
2024/03/31 00:22:19;;;;;;;40.33;22.43;;;10.10;1.00;;;;;;5059080;28;20222;-82
2024/03/31 00:24:46;;;;;;;42.53;23.03;;;10.10;1.00;;;;;;5059264;28;20215;-84
2024/03/31 00:27:12;;;;;;;51.93;25.90;;;10.10;1.00;;;;;;5057530;28;20223;-82
2024/03/31 00:29:39;;;;;;;47.43;25.23;;;10.10;1.00;;;;;;5057423;28;20248;-84
2024/03/31 00:32:07;;;;;;;47.97;24.63;;;10.20;1.00;;;;;;5057276;28;20773;-84
2024/03/31 00:34:34;;;;;;;49.27;24.63;;;10.10;1.00;;;;;;5056670;28;20195;-84
2024/03/31 00:37:00;;;;;;;51.40;24.97;;;10.20;1.00;;;;;;5056503;28;20207;-83
2024/03/31 00:39:27;;;;;;;45.43;24.20;;;10.20;1.00;;;;;;5057744;28;20269;-82
2024/03/31 00:41:54;;;;;;;49.37;25.67;;;10.20;1.00;;;;;;5056706;28;20261;-80
2024/03/31 00:44:21;;;;;;;49.03;24.43;;;10.20;1.00;;;;;;5084369;28;20651;-83
2024/03/31 00:46:47;;;;;;;46.33;24.27;;;10.20;1.00;;;;;;5097429;28;20644;-83
2024/03/31 00:49:15;;;;;;;45.20;25.80;;;10.20;99.90;;;;;;5098521;28;20198;-83
2024/03/31 00:51:42;;;;;;;50.00;25.40;;;10.10;99.90;;;;;;5098190;28;20577;-83
2024/03/31 00:54:09;;;;;;;47.33;27.20;;;10.10;99.90;;;;;;5097988;28;20262;-84
2024/03/31 00:56:35;;;;;;;47.93;25.43;;;10.10;99.90;;;;;;5097542;28;20213;-82
2024/03/31 00:59:02;;;;;;;44.47;24.00;;;10.10;99.90;;;;;;5096997;28;20251;-83
2024/03/31 01:01:29;;;;;;;51.23;24.53;;;9.90;99.90;;;;;;5098603;28;20197;-84
2024/03/31 01:03:56;;;;;;;53.23;26.00;;;9.90;1.00;;;;;;5099776;28;20584;-83
2024/03/31 01:06:24;;;;;;;48.17;25.60;;;9.80;1.00;;;;;;5097960;28;20695;-82
2024/03/31 01:08:53;;;;;;;54.87;26.73;;;9.80;1.00;;;;;;5096186;28;20288;-84
2024/03/31 01:11:20;;;;;;;50.03;25.93;;;9.70;1.00;;;;;;5094827;28;20229;-80
2024/03/31 01:13:48;;;;;;;47.60;27.10;;;9.80;1.00;;;;;;5063073;28;20202;-81
2024/03/31 01:16:14;;;;;;;55.23;27.33;;;9.70;1.00;;;;;;5066342;28;20226;-80
2024/03/31 01:18:41;;;;;;;49.43;26.70;;;9.80;1.00;;;;;;5063229;28;20209;-80
2024/03/31 01:21:08;;;;;;;54.97;27.07;;;9.70;1.00;;;;;;5070716;28;20268;-80
2024/03/31 01:23:42;;;;;;;45.30;26.20;;;9.50;91.50;;;;;;5073102;28;20198;-80
2024/03/31 01:26:10;;;;;;;43.53;25.80;;;9.50;99.90;;;;;;5065012;28;20286;-80
2024/03/31 01:28:37;;;;;;;44.23;25.67;;;9.60;1.00;;;;;;5068264;28;20242;-81
2024/03/31 01:31:03;;;;;;;56.33;25.30;;;9.50;1.00;;;;;;5068182;28;20198;-80
2024/03/31 01:33:30;;;;;;;48.20;27.73;;;9.40;1.00;;;;;;5072620;28;20202;-81
2024/03/31 01:35:59;;;;;;;44.57;26.27;;;9.40;1.00;;;;;;5072103;28;20248;-80
2024/03/31 01:38:26;;;;;;;42.90;26.43;;;9.30;99.90;;;;;;5075588;28;20205;-80
2024/03/31 01:40:52;;;;;;;45.03;26.00;;;9.40;99.90;;;;;;5068142;28;20202;-80
2024/03/31 01:43:20;;;;;;;45.83;27.00;;;9.40;1.00;;;;;;5073479;28;20237;-80
2024/03/31 01:45:47;;;;;;;48.53;25.50;;;9.30;1.00;;;;;;5071212;28;20253;-80
2024/03/31 01:48:14;;;;;;;47.13;27.20;;;9.30;1.00;;;;;;5069811;28;20945;-80
2024/03/31 01:50:40;;;;;;;45.87;26.53;;;9.30;1.00;;;;;;5074987;28;20333;-80
2024/03/31 01:53:07;;;;;;;44.93;25.63;;;9.20;1.00;;;;;;5066362;28;20202;-80
2024/03/31 01:55:33;;;;;;;39.23;24.17;;;9.20;1.00;;;;;;5072805;28;20219;-80
2024/03/31 01:58:00;;;;;;;46.57;24.33;;;9.20;1.00;;;;;;5062938;28;20640;-81
2024/03/31 02:00:27;;;;;;;46.87;24.93;;;9.20;1.00;;;;;;5078757;28;20198;-81
2024/03/31 02:02:55;;;;;;;44.87;24.20;;;9.20;1.00;;;;;;5077427;28;20203;-80
2024/03/31 02:05:20;;;;;;;35.90;22.07;;;9.20;1.00;;;;;;5073575;28;20218;-80
2024/03/31 02:07:50;;;;;;;40.00;21.80;;;9.30;62.10;;;;;;5077698;28;20275;-79
2024/03/31 02:10:16;;;;;;;41.50;21.80;;;9.30;1.00;;;;;;5080092;28;20253;-79
2024/03/31 02:12:43;;;;;;;39.93;22.50;;;9.10;1.00;;;;;;5072022;28;20202;-79
2024/03/31 02:15:09;;;;;;;34.87;21.60;;;9.00;99.00;;;;;;5071214;28;20249;-82
2024/03/31 02:17:37;;;;;;;41.20;21.57;;;9.10;99.90;;;;;;5064570;28;20656;-80
2024/03/31 02:20:06;;;;;;;40.20;22.23;;;9.20;99.90;;;;;;5073165;28;20241;-79
2024/03/31 02:22:34;;;;;;;37.83;20.73;;;9.20;99.90;;;;;;5063712;28;20202;-79
2024/03/31 02:25:00;;;;;;;37.60;20.57;;;9.30;99.90;;;;;;5073707;28;20308;-78
2024/03/31 02:27:27;;;;;;;34.80;20.27;;;9.30;36.70;;;;;;5079599;28;20226;-79
2024/03/31 02:29:53;;;;;;;38.60;20.57;;;9.30;1.00;;;;;;5076229;28;20210;-79
2024/03/31 02:32:20;;;;;;;35.13;20.27;;;9.30;1.00;;;;;;5074283;28;20194;-79
2024/03/31 02:34:47;;;;;;;34.67;21.27;;;9.40;1.00;;;;;;5079049;28;20245;-79
2024/03/31 02:37:14;;;;;;;35.50;20.17;;;9.40;1.00;;;;;;5073591;28;20240;-79
2024/03/31 02:39:40;;;;;;;37.43;21.07;;;9.50;1.00;;;;;;5072082;28;20198;-79
2024/03/31 02:42:07;;;;;;;38.73;19.87;;;9.60;1.00;;;;;;5075737;28;20240;-78
2024/03/31 02:44:33;;;;;;;37.33;21.40;;;9.60;99.90;;;;;;5071950;28;20199;-80
2024/03/31 02:47:01;;;;;;;39.30;20.50;;;9.60;99.90;;;;;;5079204;28;20229;-79
2024/03/31 02:49:27;;;;;;;36.80;20.43;;;9.50;37.50;;;;;;5072218;28;20202;-79
2024/03/31 02:51:55;;;;;;;42.67;21.60;;;9.50;1.00;;;;;;5072103;28;20202;-79
2024/03/31 02:54:21;;;;;;;37.13;21.37;;;9.50;1.00;;;;;;5071594;28;20279;-80
2024/03/31 02:56:48;;;;;;;40.67;21.47;;;9.50;1.00;;;;;;5076594;28;20214;-79
2024/03/31 02:59:14;;;;;;;41.87;22.73;;;9.50;1.00;;;;;;5074351;28;20202;-78
2024/03/31 03:01:41;;;;;;;42.63;21.17;;;9.50;1.00;;;;;;5068912;28;20202;-80
2024/03/31 03:04:07;;;;;;;39.70;21.70;;;9.50;1.00;;;;;;5068450;28;20641;-78
2024/03/31 03:06:34;;;;;;;45.10;22.17;;;9.40;1.00;;;;;;5070541;28;20254;-79
2024/03/31 03:09:03;;;;;;;45.40;22.00;;;9.40;1.00;;;;;;5076341;28;20222;-79
2024/03/31 03:11:30;;;;;;;39.23;22.57;;;9.40;1.00;;;;;;5080404;28;20207;-79
2024/03/31 03:13:56;;;;;;;40.63;22.07;;;9.30;1.00;;;;;;5080191;28;20253;-79
2024/03/31 03:16:23;;;;;;;39.87;22.50;;;9.30;1.00;;;;;;5083291;28;20221;-78
2024/03/31 03:18:50;;;;;;;46.07;22.80;;;9.40;1.00;;;;;;5081108;28;20202;-78
2024/03/31 03:21:17;;;;;;;35.53;20.80;;;9.40;1.00;;;;;;5074136;28;20230;-78
2024/03/31 03:23:43;;;;;;;37.10;22.00;;;9.30;1.00;;;;;;5067203;28;20230;-80
2024/03/31 03:26:12;;;;;;;36.63;21.33;;;9.30;1.00;;;;;;5070497;28;20720;-78
2024/03/31 03:28:38;;;;;;;40.87;20.53;;;9.10;79.90;;;;;;5068269;28;20253;-78
2024/03/31 03:31:05;;;;;;;35.87;20.33;;;9.00;99.90;;;;;;5068715;28;20204;-80
2024/03/31 03:33:31;;;;;;;46.13;23.03;;;9.00;1.00;;;;;;5070342;28;20209;-80
2024/03/31 03:36:03;;;;;;;34.73;21.60;;;9.00;1.00;;;;;;5081948;28;20578;-78
2024/03/31 03:38:31;;;;;;;41.43;21.83;;;9.00;1.00;;;;;;5070841;28;20194;-79
2024/03/31 03:40:58;;;;;;;41.17;21.40;;;9.00;1.00;;;;;;5076033;28;20206;-80
2024/03/31 03:43:32;;;;;;;37.53;22.30;;;9.00;1.00;;;;;;5064649;28;20199;-79
2024/03/31 03:46:00;;;;;;;37.40;20.50;;;9.00;1.00;;;;;;5079346;28;20225;-79
2024/03/31 03:48:26;;;;;;;39.90;20.67;;;9.00;1.00;;;;;;5081830;28;20222;-81
2024/03/31 03:50:53;;;;;;;35.57;20.50;;;9.00;99.90;;;;;;5081744;28;20572;-80
2024/03/31 03:53:19;;;;;;;38.23;21.33;;;9.00;99.90;;;;;;5067426;28;20198;-81
2024/03/31 03:55:46;;;;;;;38.23;21.40;;;9.00;1.00;;;;;;5080939;28;20733;-81
2024/03/31 03:58:12;;;;;;;38.00;22.07;;;9.00;1.00;;;;;;5069104;28;20214;-81
2024/03/31 04:00:41;;;;;;;38.27;21.27;;;9.00;1.00;;;;;;5068617;28;20201;-81
2024/03/31 04:03:07;;;;;;;42.13;21.77;;;9.00;1.00;;;;;;5080846;28;20206;-79
2024/03/31 04:05:35;;;;;;;42.87;21.13;;;9.00;1.00;;;;;;5079250;28;21005;-81
2024/03/31 04:08:01;;;;;;;37.70;22.23;;;9.00;1.00;;;;;;5086577;28;20268;-80
2024/03/31 04:10:28;;;;;;;34.60;21.07;;;9.00;1.00;;;;;;5093181;28;20579;-81
2024/03/31 04:12:54;;;;;;;35.63;20.67;;;9.10;1.00;;;;;;5088491;28;20285;-79
2024/03/31 04:15:21;;;;;;;41.60;27.47;;;9.10;1.00;;;;;;5071557;28;20291;-80
2024/03/31 04:17:50;;;;;;;47.43;25.60;;;9.10;1.00;;;;;;5068920;28;20206;-79
2024/03/31 04:20:17;;;;;;;42.43;23.90;;;9.10;1.00;;;;;;5061878;28;20682;-82
2024/03/31 04:22:43;;;;;;;37.27;21.90;;;9.10;1.00;;;;;;5078001;28;20211;-79
2024/03/31 04:25:10;;;;;;;41.90;21.63;;;9.10;1.00;;;;;;5078761;28;20257;-80
2024/03/31 04:27:36;;;;;;;37.03;20.70;;;8.90;1.00;;;;;;5080494;28;20225;-83
2024/03/31 04:30:03;;;;;;;36.17;21.50;;;8.80;1.00;;;;;;5079729;28;20571;-81
2024/03/31 04:32:29;;;;;;;38.50;22.23;;;9.00;1.00;;;;;;5079744;28;20250;-82
2024/03/31 04:34:58;;;;;;;38.30;22.23;;;9.00;13.50;;;;;;5079964;28;20221;-81
2024/03/31 04:37:24;;;;;;;38.23;21.47;;;9.00;99.90;;;;;;5069317;28;20223;-81
2024/03/31 04:39:52;;;;;;;35.83;20.83;;;9.00;99.90;;;;;;5067381;28;20198;-81
2024/03/31 04:42:18;;;;;;;34.93;21.30;;;9.00;99.90;;;;;;5067949;28;20218;-80
2024/03/31 04:44:45;;;;;;;34.33;22.43;;;9.10;99.90;;;;;;5063077;28;20195;-81
2024/03/31 04:47:11;;;;;;;35.13;21.07;;;9.00;99.90;;;;;;5067784;28;20199;-81
2024/03/31 04:49:42;;;;;;;34.57;20.50;;;9.10;99.90;;;;;;5062563;28;20208;-81
2024/03/31 04:52:09;;;;;;;35.37;21.50;;;9.10;99.90;;;;;;5071450;28;20238;-80
2024/03/31 04:54:36;;;;;;;37.93;23.37;;;9.10;99.90;;;;;;5070623;28;20202;-81
2024/03/31 04:57:04;;;;;;;34.83;21.10;;;9.10;99.90;;;;;;5065492;28;20715;-81
2024/03/31 04:59:31;;;;;;;35.17;22.43;;;9.00;99.90;;;;;;5061751;28;20210;-80
2024/03/31 05:02:00;;;;;;;36.33;21.30;;;9.00;99.90;;;;;;5074676;28;20201;-81
2024/03/31 05:04:27;;;;;;;40.93;23.00;;;9.00;99.90;;;;;;5074278;28;20203;-81
2024/03/31 05:06:53;;;;;;;34.13;22.20;;;9.00;99.90;;;;;;5071065;28;20592;-84
2024/03/31 05:09:21;;;;;;;41.47;23.57;;;9.00;99.90;;;;;;5070050;28;20232;-84
2024/03/31 05:11:47;;;;;;;33.67;22.17;;;9.10;99.90;;;;;;5068295;28;20582;-84
2024/03/31 05:14:14;;;;;;;39.30;24.13;;;9.10;99.90;;;;;;5071734;28;20203;-83
2024/03/31 05:16:40;;;;;;;40.27;22.53;;;9.20;99.90;;;;;;5059921;28;20222;-83
2024/03/31 05:19:07;;;;;;;39.23;23.63;;;9.20;99.90;;;;;;5078380;28;20249;-85
2024/03/31 05:21:33;;;;;;;34.47;21.67;;;9.20;99.90;;;;;;5072729;28;20205;-85
2024/03/31 05:24:02;;;;;;;35.77;24.20;;;9.20;99.90;;;;;;5069606;28;20218;-86
2024/03/31 05:26:32;;;;;;;36.53;22.90;;;9.10;99.90;;;;;;5078356;28;20261;-81
2024/03/31 05:28:59;;;;;;;36.20;23.90;;;9.00;99.90;;;;;;5068057;28;20222;-82
2024/03/31 05:31:25;;;;;;;36.07;24.10;;;8.80;99.90;;;;;;5066637;28;20214;-82
2024/03/31 05:33:52;;;;;;;36.33;24.77;;;9.00;99.90;;;;;;5077146;28;20263;-82
2024/03/31 05:36:18;;;;;;;32.47;22.97;;;9.00;99.90;;;;;;5074163;28;20211;-85
2024/03/31 05:38:45;;;;;;;34.77;24.30;;;9.00;99.90;;;;;;5075426;28;20201;-84
2024/03/31 05:41:14;;;;;;;37.23;25.03;;;9.00;99.90;;;;;;5072520;28;20195;-83
2024/03/31 05:43:42;;;;;;;37.17;26.10;;;9.00;99.90;;;;;;5073731;28;20635;-82
2024/03/31 05:46:08;;;;;;;35.00;25.93;;;9.10;99.90;;;;;;5059357;28;20235;-83
2024/03/31 05:48:35;;;;;;;35.50;26.77;;;9.10;99.90;;;;;;5063835;28;20218;-82
2024/03/31 05:51:01;;;;;;;33.13;26.03;;;9.20;99.90;;;;;;5079957;28;20840;-82
2024/03/31 05:53:28;;;;;;;37.20;27.67;;;9.20;99.90;;;;;;5070762;28;20199;-84
2024/03/31 05:55:57;;;;;;;36.70;26.80;;;9.20;99.90;;;;;;5069319;28;20275;-81
2024/03/31 05:58:24;;;;;;;33.50;27.33;;;9.30;99.90;;;;;;5062006;28;20197;-82
2024/03/31 06:00:55;;;;;;;36.10;27.23;;;9.20;99.90;;;;;;5099022;28;20227;-84
2024/03/31 06:03:24;;;;;;;41.13;28.37;;;9.30;99.90;;;;;;5061672;28;20209;-83
2024/03/31 06:05:52;;;;;;;36.17;27.50;;;9.30;99.90;;;;;;5058599;28;20223;-81
2024/03/31 06:08:19;;;;;;;38.67;27.90;;;9.30;99.90;;;;;;5086846;28;20293;-82
2024/03/31 06:10:45;;;;;;;35.93;29.03;;;9.40;99.90;;;;;;5077513;28;20252;-83
2024/03/31 06:13:11;;;;;;;37.43;27.37;;;9.30;99.90;;;;;;5070560;28;20211;-81
2024/03/31 06:15:37;;;;;;;40.07;27.87;;;9.40;99.90;;;;;;5075912;28;20240;-82
2024/03/31 06:18:06;;;;;;;33.27;25.87;;;9.40;99.90;;;;;;5070010;28;20645;-79
2024/03/31 06:20:32;;;;;;;34.30;25.20;;;9.30;99.90;;;;;;5074533;28;20201;-83
2024/03/31 06:23:00;;;;;;;35.03;26.00;;;9.30;99.90;;;;;;5065141;28;20217;-83
2024/03/31 06:25:26;;;;;;;34.67;26.00;;;9.30;99.90;;;;;;5067853;28;20596;-81
2024/03/31 06:27:53;;;;;;;38.67;28.60;;;9.30;99.90;;;;;;5063872;28;20219;-82
2024/03/31 06:30:19;;;;;;;32.57;25.80;;;9.30;99.90;;;;;;5067071;28;20236;-80
2024/03/31 06:32:46;;;;;;;36.20;26.40;;;9.20;99.90;;;;;;5062856;28;20798;-79
2024/03/31 06:35:16;;;;;;;33.77;26.37;;;9.20;99.90;;;;;;5070832;28;20234;-82
2024/03/31 06:37:43;;;;;;;35.03;25.00;;;9.20;99.90;;;;;;5073606;28;20198;-81
2024/03/31 06:40:09;;;;;;;35.00;24.80;;;9.30;99.90;;;;;;5071548;28;20256;-81
2024/03/31 06:42:36;;;;;;;36.23;25.60;;;9.20;99.90;;;;;;5068025;28;20202;-84
2024/03/31 06:45:03;;;;;;;32.80;26.10;;;9.20;99.90;;;;;;5069221;28;20586;-81
2024/03/31 06:47:30;;;;;;;36.07;27.07;;;9.20;99.90;;;;;;5068036;28;20572;-81
2024/03/31 06:49:56;;;;;;;36.07;27.37;;;9.30;99.90;;;;;;5063870;28;20226;-81
2024/03/31 06:52:24;;;;;;;40.07;27.67;;;9.40;99.90;;;;;;5069467;28;20203;-81
2024/03/31 06:54:50;;;;;;;33.93;26.23;;;9.40;99.90;;;;;;5072905;28;20225;-81
2024/03/31 06:57:17;;;;;;;35.53;27.27;;;9.50;99.90;;;;;;5065022;28;20199;-82
2024/03/31 06:59:43;;;;;;;35.30;27.20;;;9.50;99.90;;;;;;5074452;28;20254;-81
2024/03/31 07:02:10;;;;;;;36.83;28.70;;;9.50;99.90;;;;;;5076056;28;20206;-81
2024/03/31 07:04:36;;;;;;;35.83;27.57;;;9.60;99.90;;;;;;5077580;28;20198;-81
2024/03/31 07:07:03;;;;;;;35.13;28.50;;;9.50;99.90;;;;;;5073555;28;20457;-80
2024/03/31 07:09:31;;;;;;;35.20;27.57;;;9.60;99.90;;;;;;5078982;28;20225;-82
2024/03/31 07:11:58;;;;;;;37.23;27.33;;;9.60;99.90;;;;;;5082248;28;20233;-82
2024/03/31 07:14:24;;;;;;;36.10;27.40;;;9.50;99.90;;;;;;5075823;28;20845;-85
2024/03/31 07:16:51;;;;;;;37.17;28.63;;;9.60;99.90;;;;;;5072400;28;20204;-82
2024/03/31 07:19:17;;;;;;;38.13;30.53;;;9.60;99.90;;;;;;5075664;28;20233;-81
2024/03/31 07:21:44;;;;;;;42.07;29.80;;;9.60;99.90;;;;;;5079604;28;20194;-82
2024/03/31 07:24:10;;;;;;;38.37;28.80;;;9.60;99.90;;;;;;5073751;28;20259;-81
2024/03/31 07:26:39;;;;;;;37.03;28.43;;;9.70;99.90;;;;;;5074240;28;20218;-81
2024/03/31 07:29:05;;;;;;;41.07;31.10;;;9.70;99.90;;;;;;5066379;28;22258;-81
2024/03/31 07:31:31;;;;;;;40.30;31.43;;;9.50;99.90;;;;;;5078043;28;20194;-80
2024/03/31 07:33:57;;;;;;;38.90;31.90;;;9.60;99.90;;;;;;5073674;28;20210;-81
2024/03/31 07:36:24;;;;;;;40.73;32.33;;;9.60;99.90;;;;;;5079889;28;20222;-80
2024/03/31 07:38:50;;;;;;;40.10;32.13;;;9.70;99.90;;;;;;5080031;28;20268;-79
2024/03/31 07:41:17;;;;;;;39.10;31.13;;;9.60;99.90;;;;;;5079993;28;20198;-79
2024/03/31 07:43:45;;;;;;;42.67;32.70;;;9.60;99.90;;;;;;5082635;28;20202;-79
2024/03/31 07:46:11;;;;;;;40.57;30.13;;;9.70;99.90;;;;;;5077084;28;20313;-79
2024/03/31 07:48:37;;;;;;;36.17;29.20;;;9.70;99.90;;;;;;5082309;28;20235;-78
2024/03/31 07:51:05;;;;;;;37.97;29.23;;;9.70;99.90;;;;;;5079121;28;20190;-79
2024/03/31 07:53:31;;;;;;;39.83;30.77;;;9.70;99.90;;;;;;5078924;28;20636;-79
2024/03/31 07:55:58;;;;;;;39.50;30.73;;;9.70;99.90;;;;;;5072042;28;20279;-80
2024/03/31 07:58:25;;;;;;;37.73;29.43;;;9.70;99.90;;;;;;5062682;28;20645;-79
2024/03/31 08:00:55;;;;;;;40.10;31.50;;;9.70;99.90;;;;;;5072416;28;20209;-79
2024/03/31 08:03:22;;;;;;;36.20;29.83;;;9.70;99.90;;;;;;5072766;28;20672;-81
2024/03/31 08:05:49;;;;;;;38.43;31.93;;;9.70;99.90;;;;;;5063035;28;20615;-82
2024/03/31 08:08:15;;;;;;;38.03;31.30;;;9.70;99.90;;;;;;5069615;28;20226;-81
2024/03/31 08:10:43;;;;;;;39.83;31.67;;;9.70;99.90;;;;;;5070311;28;20206;-82
2024/03/31 08:13:10;;;;;;;38.43;31.67;;;9.70;99.90;;;;;;5066842;28;20203;-82
2024/03/31 08:15:36;;;;;;;41.27;32.30;;;9.70;99.90;;;;;;5071695;28;20225;-81
2024/03/31 08:18:05;;;;;;;41.53;32.23;;;9.80;99.90;;;;;;5078966;28;20197;-81
2024/03/31 08:20:31;;;;;;;39.97;32.53;;;9.80;99.90;;;;;;5075251;28;20227;-82
2024/03/31 08:22:59;;;;;;;40.57;33.43;;;9.80;99.90;;;;;;5071937;28;20222;-84
2024/03/31 08:25:25;;;;;;;42.60;31.70;;;9.80;99.90;;;;;;5074068;28;20671;-82
2024/03/31 08:27:52;;;;;;;43.10;33.10;;;9.90;99.90;;;;;;5075484;28;20281;-83
2024/03/31 08:30:18;;;;;;;39.80;32.57;;;10.00;99.90;;;;;;5071291;28;20675;-83
2024/03/31 08:32:45;;;;;;;39.90;31.77;;;10.10;99.90;;;;;;5073928;28;20273;-82
2024/03/31 08:35:15;;;;;;;39.43;33.03;;;10.20;99.90;;;;;;5068233;28;20334;-84
2024/03/31 08:37:42;;;;;;;44.63;35.63;;;10.40;99.90;;;;;;5075812;28;20562;-81
2024/03/31 08:40:09;;;;;;;44.50;36.30;;;10.60;99.90;;;;;;5070803;28;20206;-83
2024/03/31 08:42:43;;;;;;;45.90;38.70;;;10.80;99.90;;;;;;5077405;28;20214;-81
2024/03/31 08:45:12;;;;;;;52.10;40.50;;;10.90;99.90;;;;;;5078202;28;20251;-81
2024/03/31 08:47:43;;;;;;;48.97;40.77;;;11.20;99.90;;;;;;5082174;28;20197;-81
2024/03/31 08:50:09;;;;;;;50.13;41.07;;;11.30;99.90;;;;;;5074884;28;20240;-83
2024/03/31 08:52:39;;;;;;;48.87;43.07;;;11.20;99.90;;;;;;5080967;28;20679;-84
2024/03/31 08:55:08;;;;;;;49.07;41.70;;;11.40;99.90;;;;;;5069792;28;20846;-82
2024/03/31 08:57:36;;;;;;;47.80;40.97;;;11.30;99.90;;;;;;5073833;28;20207;-82
2024/03/31 09:00:04;;;;;;;53.53;47.67;;;11.30;99.90;;;;;;5075734;28;20276;-82
2024/03/31 09:02:30;;;;;;;52.17;45.43;;;11.10;99.90;;;;;;5066165;28;20218;-80
2024/03/31 09:04:57;;;;;;;52.70;45.83;;;11.00;99.90;;;;;;5068449;28;20218;-80
2024/03/31 09:07:23;;;;;;;53.23;47.47;;;11.10;99.90;;;;;;5075560;28;20618;-79
2024/03/31 09:09:51;;;;;;;53.67;46.20;;;11.20;99.90;;;;;;5077353;28;20223;-79
2024/03/31 09:12:18;;;;;;;54.00;47.57;;;11.30;99.90;;;;;;5075218;28;20205;-82
2024/03/31 09:14:45;;;;;;;54.60;46.80;;;11.30;99.90;;;;;;5072426;28;20228;-81
2024/03/31 09:17:12;;;;;;;50.67;45.10;;;11.30;99.90;;;;;;5068673;28;20210;-82
2024/03/31 09:19:39;;;;;;;52.47;45.03;;;11.20;99.90;;;;;;5068152;28;20213;-80
2024/03/31 09:22:06;;;;;;;53.60;46.43;;;11.30;99.90;;;;;;5069560;28;20274;-80
2024/03/31 09:24:33;;;;;;;54.17;46.37;;;11.50;99.90;;;;;;5073563;28;20221;-80
2024/03/31 09:27:01;;;;;;;51.03;45.23;;;11.50;99.90;;;;;;5068920;28;20207;-80
2024/03/31 09:29:29;;;;;;;52.43;46.43;;;11.50;99.90;;;;;;5076251;28;20256;-81
2024/03/31 09:32:04;;;;;;;53.43;46.50;;;11.40;99.90;;;;;;5070811;28;20210;-81
2024/03/31 09:34:31;;;;;;;54.43;47.03;;;11.40;99.90;;;;;;5075243;28;20198;-81
2024/03/31 09:36:57;;;;;;;53.97;47.03;;;11.50;99.90;;;;;;5069133;28;20217;-81
2024/03/31 09:39:25;;;;;;;55.67;47.43;;;11.50;99.90;;;;;;5077152;28;20195;-80
2024/03/31 09:41:53;;;;;;;53.37;47.33;;;11.40;99.90;;;;;;5072219;28;20193;-80
2024/03/31 09:44:21;;;;;;;55.80;47.80;;;11.40;99.90;;;;;;5073645;28;20209;-80
2024/03/31 09:46:49;;;;;;;54.23;46.27;;;11.50;99.90;;;;;;5070361;28;20244;-81
2024/03/31 09:49:22;;;;;;;52.53;46.83;;;11.50;99.90;;;;;;5080512;28;20222;-82
2024/03/31 09:51:52;;;;;;;52.40;46.70;;;11.30;99.90;;;;;;5071438;28;20194;-83
2024/03/31 09:54:22;;;;;;;53.77;48.03;;;11.40;99.90;;;;;;5074365;28;20209;-80
2024/03/31 09:56:56;;;;;;;56.50;47.10;;;11.40;99.90;;;;;;5072132;28;20239;-81
2024/03/31 09:59:25;;;;;;;55.13;49.23;;;11.30;1.00;;;;;;5069210;28;20195;-79
2024/03/31 10:01:55;;;;;;;54.57;48.40;;;11.30;7.00;;;;;;5069581;28;20275;-79
2024/03/31 10:04:30;;;;;;;55.17;49.17;;;11.40;94.40;;;;;;5067561;28;20206;-79
2024/03/31 10:06:57;;;;;;;53.10;47.30;;;11.50;99.90;;;;;;5067701;28;20190;-79
2024/03/31 10:09:24;;;;;;;53.80;47.97;;;11.70;99.90;;;;;;5076664;28;20388;-79
2024/03/31 10:11:53;;;;;;;56.80;49.57;;;11.80;99.90;;;;;;5065205;28;20222;-80
2024/03/31 10:14:21;;;;;;;57.47;51.27;;;12.10;1.00;;;;;;5065246;28;20368;-82
2024/03/31 10:16:51;;;;;;;86.03;76.60;;;12.30;1.00;;;;;;5057556;28;20235;-81
2024/03/31 10:19:17;;;;;;;86.90;77.37;;;12.40;1.00;;;;;;5060592;28;20203;-81
2024/03/31 10:21:45;;;;;;;81.23;72.47;;;12.50;1.00;;;;;;5074936;28;20206;-81
2024/03/31 10:24:13;;;;;;;74.90;66.23;;;12.80;1.00;;;;;;5075232;28;20206;-82
2024/03/31 10:26:40;;;;;;;59.00;52.60;;;13.30;99.90;;;;;;5070759;28;20309;-82
2024/03/31 10:29:10;;;;;;;57.77;51.47;;;13.40;99.90;;;;;;5066872;28;20225;-81
2024/03/31 10:31:37;;;;;;;55.97;50.20;;;13.40;1.00;;;;;;5078079;28;20199;-83
2024/03/31 10:34:05;;;;;;;54.20;48.50;;;13.60;99.90;;;;;;5072227;28;20203;-81
2024/03/31 10:36:33;;;;;;;57.30;51.10;;;13.60;1.00;;;;;;5079068;28;20225;-83
2024/03/31 10:38:59;;;;;;;55.40;48.60;;;13.70;1.00;;;;;;5078278;28;20232;-81
2024/03/31 10:41:26;;;;;;;55.67;49.60;;;13.80;1.00;;;;;;5072904;28;20195;-83
2024/03/31 10:43:52;;;;;;;54.13;48.00;;;13.40;1.00;;;;;;5071237;28;20194;-82
2024/03/31 10:46:19;;;;;;;55.97;49.80;;;13.70;1.00;;;;;;5071634;28;20242;-84
2024/03/31 10:48:54;;;;;;;53.87;48.07;;;13.90;1.00;;;;;;5075945;28;20222;-83
2024/03/31 10:51:24;;;;;;;57.47;50.10;;;13.80;99.90;;;;;;5062037;28;20577;-83
2024/03/31 10:53:50;;;;;;;56.40;48.13;;;13.90;1.00;;;;;;5076004;28;20259;-82
2024/03/31 10:56:25;;;;;;;50.73;45.27;;;14.40;99.90;;;;;;5073747;28;20565;-80
2024/03/31 10:58:51;;;;;;;47.40;41.37;;;14.20;1.00;;;;;;5076094;28;20219;-81
2024/03/31 11:01:18;;;;;;;45.58;40.63;;;14.40;1.00;;;;;;5073578;28;20721;-81
2024/03/31 11:03:45;;;;;;;45.83;41.00;;;14.50;99.90;;;;;;5076917;28;20218;-80
2024/03/31 11:06:15;;;;;;;45.50;40.63;;;14.30;99.90;;;;;;5073552;28;20280;-81
2024/03/31 11:08:44;;;;;;;42.10;36.30;;;14.80;99.90;;;;;;5068317;28;20246;-81
2024/03/31 11:11:12;;;;;;;41.13;36.55;;;14.70;1.00;;;;;;5076484;28;20206;-81
2024/03/31 11:13:38;;;;;;;44.67;39.78;;;14.60;1.00;;;;;;5077608;28;20202;-80
2024/03/31 11:16:06;;;;;;;43.20;37.60;;;14.50;1.00;;;;;;5072267;28;20218;-78
2024/03/31 11:18:33;;;;;;;38.72;33.40;;;14.80;1.00;;;;;;5080440;28;20253;-79
2024/03/31 11:21:07;;;;;;;43.65;38.08;;;15.00;1.00;;;;;;5071768;28;20204;-79
2024/03/31 11:23:37;;;;;;;39.63;34.60;;;14.80;1.00;;;;;;5071847;28;20208;-79
2024/03/31 11:26:06;;;;;;;40.60;33.50;;;14.80;1.00;;;;;;5079413;28;20301;-79
2024/03/31 11:28:33;;;;;;;39.97;31.17;;;14.70;99.90;;;;;;5071413;28;20207;-82
2024/03/31 11:31:02;;;;;;;37.17;31.25;;;15.30;99.90;;;;;;5074503;28;20610;-82
2024/03/31 11:33:30;;;;;;;37.78;32.47;;;15.10;99.90;;;;;;5077029;28;20210;-82
2024/03/31 11:35:57;;;;;;;37.13;30.95;;;14.80;99.90;;;;;;5072702;28;20225;-82
2024/03/31 11:38:26;;;;;;;38.00;33.15;;;14.90;99.90;;;;;;5075379;28;20372;-82
2024/03/31 11:40:53;;;;;;;43.38;36.63;;;14.70;99.90;;;;;;5069102;28;20206;-82
2024/03/31 11:43:20;;;;;;;43.10;36.47;;;14.70;99.90;;;;;;5077899;28;20582;-82
2024/03/31 11:45:47;;;;;;;41.65;34.33;;;14.90;99.90;;;;;;5075173;28;20226;-81
2024/03/31 11:48:13;;;;;;;38.97;33.63;;;15.10;99.90;;;;;;5079175;28;20251;-83
2024/03/31 11:50:40;;;;;;;41.67;34.22;;;14.90;99.90;;;;;;5074428;28;20218;-81
2024/03/31 11:53:07;;;;;;;37.70;32.13;;;15.50;99.90;;;;;;5072857;28;20234;-81
2024/03/31 11:55:34;;;;;;;40.03;32.03;;;15.40;99.90;;;;;;5066078;28;20590;-82
2024/03/31 11:58:01;;;;;;;35.30;30.52;;;15.40;28.40;;;;;;5063087;28;20272;-81
2024/03/31 12:00:30;;;;;;;34.22;29.42;;;15.20;1.00;;;;;;5072545;28;20194;-79
2024/03/31 12:03:06;;;;;;;38.28;31.45;;;15.00;1.00;;;;;;5075769;28;20206;-79
2024/03/31 12:05:34;;;;;;;37.70;31.45;;;14.90;50.10;;;;;;5075219;28;20641;-78
2024/03/31 12:08:04;;;;;;;35.28;30.27;;;15.10;1.70;;;;;;5074730;28;20768;-79
2024/03/31 12:10:32;;;;;;;38.17;30.75;;;15.30;1.00;;;;;;5077199;28;20214;-79
2024/03/31 12:12:58;;;;;;;33.42;27.80;;;15.10;99.90;;;;;;5081957;28;20194;-80
2024/03/31 12:15:26;;;;;;;35.08;26.08;;;15.00;99.90;;;;;;5075687;28;20218;-79
2024/03/31 12:17:59;;;;;;;32.80;25.58;;;14.70;26.30;;;;;;5066852;28;20206;-79
2024/03/31 12:20:26;;;;;;;31.50;22.97;;;14.70;99.90;;;;;;5068306;28;20199;-78
2024/03/31 12:22:52;;;;;;;29.00;21.80;;;14.70;99.90;;;;;;5069825;28;20202;-78
2024/03/31 12:25:20;;;;;;;32.70;23.10;;;14.70;99.90;;;;;;5075176;28;20221;-79
2024/03/31 12:27:47;;;;;;;30.00;22.98;;;14.80;1.00;;;;;;5069826;28;20297;-79
2024/03/31 12:30:14;;;;;;;31.52;23.80;;;14.80;1.00;;;;;;5071989;28;20309;-79
2024/03/31 12:32:40;;;;;;;33.60;24.90;;;14.90;10.60;;;;;;5070393;28;20730;-79
2024/03/31 12:35:08;;;;;;;31.55;24.27;;;14.90;94.50;;;;;;5069084;28;20218;-79